Time;durP1;ratioP1;P1;durP2;ratioP2;P2;SDS_P1;SDS_P2;PMS_P1;PMS_P2;Temp;Humidity;BMP_temperature;BMP_pressure;BME280_temperature;BME280_humidity;BME280_pressure;Samples;Min_cycle;Max_cycle;Signal;HPM_P1;HPM_P2
2022/12/27 00:01:25;;;;;;;16.02;4.18;;;;;;;1.59;78.76;100870.94;10501678;28;20041;-77
2022/12/27 00:06:29;;;;;;;15.65;3.03;;;;;;;1.63;78.35;100880.50;10506437;28;20041;-78
2022/12/27 00:11:32;;;;;;;9.50;3.95;;;;;;;1.73;78.31;100889.84;10493324;28;20045;-77
2022/12/27 00:16:37;;;;;;;11.75;3.45;;;;;;;1.73;78.14;100888.06;10494873;28;20045;-79
2022/12/27 00:21:40;;;;;;;7.82;2.58;;;;;;;1.79;77.78;100881.69;10512031;28;20040;-77
2022/12/27 00:26:42;;;;;;;5.00;2.15;;;;;;;1.77;77.25;100882.66;10509842;28;20466;-78
2022/12/27 00:31:47;;;;;;;5.32;2.00;;;;;;;1.75;78.06;100892.44;10497978;28;20043;-75
2022/12/27 00:36:49;;;;;;;5.78;2.30;;;;;;;1.93;77.93;100887.31;10519040;28;20381;-77
2022/12/27 00:41:52;;;;;;;5.18;2.00;;;;;;;1.92;77.33;100888.25;10505029;28;20045;-78
2022/12/27 00:46:56;;;;;;;7.53;2.53;;;;;;;2.03;77.45;100892.28;10502699;28;20048;-76
2022/12/27 00:51:59;;;;;;;8.88;2.55;;;;;;;2.06;76.25;100889.53;10482669;28;20052;-75
2022/12/27 00:57:02;;;;;;;10.63;2.45;;;;;;;2.48;75.21;100894.09;10457325;28;20065;-76
2022/12/27 01:02:06;;;;;;;13.32;1.98;;;;;;;2.16;76.24;100885.59;10458708;28;20047;-77
2022/12/27 01:07:09;;;;;;;8.32;2.13;;;;;;;2.22;75.16;100897.75;10489129;28;20052;-76
2022/12/27 01:12:12;;;;;;;30.00;2.88;;;;;;;2.08;75.63;100895.63;10478980;28;20458;-76
2022/12/27 01:17:16;;;;;;;11.23;2.40;;;;;;;2.15;75.42;100913.03;10475307;28;20047;-76
2022/12/27 01:22:20;;;;;;;6.97;1.60;;;;;;;2.30;75.32;100911.56;10476201;28;20043;-78
2022/12/27 01:27:23;;;;;;;9.68;2.00;;;;;;;2.17;74.66;100896.16;10437997;28;20056;-76
2022/12/27 01:32:27;;;;;;;10.63;2.70;;;;;;;2.25;75.22;100924.13;10455260;28;20044;-77
2022/12/27 01:37:30;;;;;;;8.57;1.80;;;;;;;2.37;75.07;100927.19;10455526;28;20045;-77
2022/12/27 01:48:01;;;;;;;3.45;1.20;;;;;;;2.27;75.48;100925.81;10455474;28;20068;-76
2022/12/27 01:53:09;;;;;;;6.93;2.13;;;;;;;2.08;76.56;100945.97;10455342;28;20953;-75
2022/12/27 01:58:17;;;;;;;8.07;1.65;;;;;;;2.50;74.79;100924.94;10455377;28;20087;-77
2022/12/27 02:03:25;;;;;;;6.85;1.70;;;;;;;2.29;75.55;100931.94;10454264;28;20465;-76
2022/12/27 02:08:36;;;;;;;6.38;2.10;;;;;;;2.19;75.53;100930.53;10471797;28;20143;-76
2022/12/27 02:13:43;;;;;;;2.88;1.75;;;;;;;1.95;76.55;100930.53;10464790;28;20101;-76
2022/12/27 02:18:47;;;;;;;6.60;2.58;;;;;;;2.12;76.83;100945.81;10453203;28;20053;-78
2022/12/27 02:24:15;;;;;;;7.00;2.47;;;;;;;2.01;76.89;100950.66;10452871;28;20073;-77
2022/12/27 02:29:34;;;;;;;15.45;3.65;;;;;;;2.09;77.86;100953.88;10475701;28;20071;-78
2022/12/27 02:34:48;;;;;;;8.02;1.75;;;;;;;1.98;77.33;100957.84;10453062;28;20033;-77
2022/12/27 02:39:52;;;;;;;9.60;2.88;;;;;;;1.99;77.79;100965.72;10472715;28;20087;-77
2022/12/27 03:07:14;;;;;;;10.88;3.63;;;;;;;2.26;77.56;100971.81;10477325;28;20033;-77
2022/12/27 03:17:54;;;;;;;10.15;3.22;;;;;;;2.17;77.90;100959.75;10448190;28;20139;-78
2022/12/27 03:33:50;;;;;;;8.93;3.67;;;;;;;2.65;76.85;100973.03;10475312;28;20462;-77
2022/12/27 03:39:03;;;;;;;8.07;3.55;;;;;;;2.18;78.91;100955.31;10476520;28;20072;-78
2022/12/27 03:44:22;;;;;;;;;;;;;;;2.44;77.70;100975.56;10477749;28;20109;-78
2022/12/27 03:49:32;;;;;;;7.47;2.85;;;;;;;2.42;77.92;100992.47;10479525;28;19927;-77
2022/12/27 03:54:37;;;;;;;12.80;4.72;;;;;;;2.52;77.90;100981.41;10458859;28;20448;-77
2022/12/27 03:59:40;;;;;;;9.02;2.92;;;;;;;2.35;78.68;100990.00;10487301;28;20043;-78
2022/12/27 04:04:45;;;;;;;10.68;4.72;;;;;;;2.53;78.07;100982.31;10468128;28;20115;-78
2022/12/27 04:36:34;;;;;;;15.18;5.35;;;;;;;2.40;79.51;101005.75;10483269;28;20440;-78
2022/12/27 04:57:42;;;;;;;13.50;6.45;;;;;;;2.65;79.48;100981.88;10513612;28;20071;-76
2022/12/27 05:02:45;;;;;;;23.42;7.57;;;;;;;2.29;81.11;100986.75;10530445;28;20052;-76
2022/12/27 05:18:32;;;;;;;12.82;7.43;;;;;;;2.01;81.37;100990.41;10473274;28;20098;-78
2022/12/27 05:29:07;;;;;;;11.10;6.22;;;;;;;2.20;80.80;101013.59;10492817;28;20048;-78
2022/12/27 05:34:09;;;;;;;17.48;10.35;;;;;;;2.31;81.03;101014.94;10495389;28;20041;-78
2022/12/27 05:39:13;;;;;;;16.58;8.27;;;;;;;2.19;81.95;101002.09;10495574;28;20068;-77
2022/12/27 05:44:16;;;;;;;9.43;6.90;;;;;;;2.21;81.63;101026.78;10468688;28;20454;-77
2022/12/27 05:49:19;;;;;;;17.80;11.77;;;;;;;2.29;81.95;101030.03;10485058;28;20756;-77
2022/12/27 05:54:23;;;;;;;16.50;8.55;;;;;;;2.50;80.53;101036.34;10477269;28;20103;-77
2022/12/27 05:59:26;;;;;;;22.23;8.55;;;;;;;1.98;82.54;101051.47;10485220;28;20051;-78
2022/12/27 06:04:29;;;;;;;23.73;10.35;;;;;;;2.53;80.56;101062.78;10467092;28;20156;-77
2022/12/27 06:09:33;;;;;;;21.95;10.02;;;;;;;2.33;81.44;101073.19;10474938;28;20068;-75
2022/12/27 06:14:36;;;;;;;16.02;10.25;;;;;;;2.72;80.80;101067.41;10476409;28;20041;-77
2022/12/27 06:19:38;;;;;;;11.13;7.22;;;;;;;2.55;81.54;101084.81;10458591;28;20099;-79
2022/12/27 06:24:42;;;;;;;10.75;8.48;;;;;;;2.35;82.39;101084.63;10470753;28;20041;-76
2022/12/27 06:29:45;;;;;;;22.85;10.52;;;;;;;2.67;80.63;101094.09;10489297;28;20064;-75
2022/12/27 06:34:48;;;;;;;19.38;9.40;;;;;;;2.71;80.90;101081.56;10535399;28;20044;-77
2022/12/27 06:39:52;;;;;;;8.50;6.65;;;;;;;2.51;81.35;101080.50;10496154;28;20045;-77
2022/12/27 06:44:55;;;;;;;20.20;9.80;;;;;;;2.74;81.42;101090.31;10472965;28;20037;-79
2022/12/27 06:49:58;;;;;;;22.73;11.18;;;;;;;2.63;82.27;101091.59;10493301;28;20048;-78
2022/12/27 06:55:02;;;;;;;14.88;6.68;;;;;;;2.66;81.41;101096.78;10503684;28;20036;-78
2022/12/27 07:00:06;;;;;;;18.05;11.38;;;;;;;2.64;82.03;101114.56;10480357;28;20113;-78
2022/12/27 07:05:09;;;;;;;17.20;8.38;;;;;;;2.85;81.54;101129.69;10481444;28;20041;-78
2022/12/27 07:10:13;;;;;;;12.32;8.95;;;;;;;2.67;81.67;101147.16;10486235;28;20049;-78
2022/12/27 07:15:16;;;;;;;18.33;9.75;;;;;;;2.69;81.36;101132.06;10481238;28;20040;-78
2022/12/27 07:20:19;;;;;;;18.80;10.45;;;;;;;3.08;80.53;101136.81;10485057;28;20049;-78
2022/12/27 07:25:23;;;;;;;18.10;10.35;;;;;;;3.18;79.52;101124.91;10488374;28;20069;-78
2022/12/27 07:30:26;;;;;;;21.02;9.00;;;;;;;3.14;79.90;101138.34;10496044;28;20508;-78
2022/12/27 07:35:28;;;;;;;17.98;8.38;;;;;;;3.05;80.41;101155.50;10511564;28;20040;-79
2022/12/27 07:40:36;;;;;;;21.77;11.77;;;;;;;3.35;79.62;101166.75;10518414;28;20036;-76
2022/12/27 07:45:38;;;;;;;19.13;9.25;;;;;;;3.40;79.20;101182.50;10511080;28;20052;-78
2022/12/27 07:50:41;;;;;;;15.35;8.10;;;;;;;3.35;79.76;101176.53;10486484;28;20048;-77
2022/12/27 07:55:46;;;;;;;17.75;8.82;;;;;;;3.23;79.48;101186.66;10484273;28;20033;-76
2022/12/27 08:00:51;;;;;;;10.02;6.80;;;;;;;3.28;78.56;101181.19;10464984;28;20079;-77
2022/12/27 08:05:54;;;;;;;13.38;4.85;;;;;;;3.09;79.80;101199.59;10496976;28;20041;-77
2022/12/27 08:10:58;;;;;;;25.63;7.85;;;;;;;3.34;79.25;101196.00;10489213;28;20051;-78
2022/12/27 08:16:10;;;;;;;13.23;5.78;;;;;;;3.28;79.07;101194.47;10507326;28;20041;-78
2022/12/27 08:21:13;;;;;;;14.50;5.72;;;;;;;3.20;79.47;101181.47;10501838;28;20063;-78
2022/12/27 08:26:17;;;;;;;17.90;6.43;;;;;;;3.53;78.08;101205.00;10504183;28;20056;-77
2022/12/27 08:31:20;;;;;;;13.32;6.60;;;;;;;3.10;80.01;101201.34;10500145;28;20049;-78
2022/12/27 08:36:23;;;;;;;13.73;4.93;;;;;;;3.28;78.93;101199.75;10509183;28;20070;-78
2022/12/27 08:41:47;;;;;;;;;;;;;;;3.24;78.62;101203.47;10501982;28;20083;-78
2022/12/27 08:46:49;;;;;;;13.70;5.25;;;;;;;3.56;77.96;101204.03;10493885;28;19924;-78
2022/12/27 08:51:52;;;;;;;13.85;7.38;;;;;;;3.38;78.41;101201.16;10510041;28;20048;-79
2022/12/27 08:56:56;;;;;;;10.00;5.40;;;;;;;3.33;78.59;101200.47;10506002;28;20045;-76
2022/12/27 09:01:59;;;;;;;8.57;4.80;;;;;;;3.38;78.87;101219.75;10476596;28;20037;-77
2022/12/27 09:07:02;;;;;;;12.32;7.60;;;;;;;3.66;78.32;101221.34;10467097;28;20048;-78
2022/12/27 09:12:07;;;;;;;9.80;5.68;;;;;;;3.33;79.31;101235.00;10482791;28;20093;-78
2022/12/27 09:17:11;;;;;;;9.35;5.97;;;;;;;3.40;79.03;101236.50;10494550;28;20044;-78
2022/12/27 09:22:13;;;;;;;9.02;3.92;;;;;;;3.28;79.36;101251.09;10499464;28;20064;-77
2022/12/27 09:27:18;;;;;;;19.23;7.20;;;;;;;3.31;79.09;101251.91;10489798;28;20032;-77
2022/12/27 09:32:20;;;;;;;13.38;5.13;;;;;;;3.27;79.20;101270.59;10505480;28;20052;-78
2022/12/27 09:37:23;;;;;;;14.13;5.43;;;;;;;3.39;78.85;101263.97;10501140;28;20041;-78
2022/12/27 09:42:42;;;;;;;19.02;7.72;;;;;;;3.69;78.69;101263.75;10477151;28;20044;-77
2022/12/27 09:48:12;;;;;;;14.23;8.20;;;;;;;4.03;76.92;101268.63;10514325;28;20069;-77
2022/12/27 09:53:20;;;;;;;10.00;6.30;;;;;;;3.54;78.27;101273.19;10492993;28;20106;-78
2022/12/27 09:58:36;;;;;;;18.95;8.65;;;;;;;3.52;78.33;101279.47;10500980;28;20052;-77
2022/12/27 10:03:39;;;;;;;14.48;7.43;;;;;;;3.60;78.05;101266.75;10495694;28;20114;-79
2022/12/27 10:08:51;;;;;;;11.05;6.63;;;;;;;3.42;78.23;101276.28;10494472;28;20040;-77
2022/12/27 10:14:01;;;;;;;17.50;9.10;;;;;;;3.66;77.98;101278.00;10493833;28;20044;-78
2022/12/27 10:19:19;;;;;;;10.00;7.90;;;;;;;3.75;77.90;101278.59;10504066;28;20056;-78
2022/12/27 10:24:26;;;;;;;18.77;8.80;;;;;;;4.17;76.50;101276.06;10492669;28;20052;-78
2022/12/27 10:29:32;;;;;;;19.90;7.65;;;;;;;3.68;77.91;101297.44;10514059;28;20052;-79
2022/12/27 10:34:37;;;;;;;12.20;7.15;;;;;;;3.83;78.09;101295.09;10496949;28;20072;-76
2022/12/27 10:39:40;;;;;;;9.88;7.20;;;;;;;3.99;77.06;101282.09;10479157;28;20060;-78
2022/12/27 10:44:44;;;;;;;14.48;7.28;;;;;;;3.92;77.30;101281.44;10481657;28;20520;-77
2022/12/27 10:50:04;;;;;;;20.05;9.07;;;;;;;4.40;76.05;101281.28;10493609;28;20040;-78
2022/12/27 10:55:34;;;;;;;12.45;9.13;;;;;;;4.80;74.51;101281.41;10486597;28;20052;-78
2022/12/27 11:00:38;;;;;;;10.70;5.60;;;;;;;4.60;73.61;101283.13;10512928;28;20041;-78
2022/12/27 11:05:41;;;;;;;10.77;6.80;;;;;;;5.12;72.51;101287.19;10513123;28;20104;-79
2022/12/27 11:10:44;;;;;;;13.05;7.97;;;;;;;5.15;72.13;101281.72;10503586;28;20053;-77
2022/12/27 11:15:56;;;;;;;16.27;7.55;;;;;;;4.94;72.05;101283.50;10513129;28;20037;-76
2022/12/27 11:21:01;;;;;;;15.63;9.85;;;;;;;4.53;73.44;101288.78;10487259;28;20064;-77
2022/12/27 11:26:06;;;;;;;20.15;9.82;;;;;;;4.39;74.26;101292.00;10491258;28;20057;-79
2022/12/27 11:31:13;;;;;;;14.20;8.30;;;;;;;4.47;74.42;101303.22;10502349;28;20378;-77
2022/12/27 11:36:26;;;;;;;11.98;6.32;;;;;;;4.29;74.96;101315.44;10495035;28;20036;-77
2022/12/27 11:41:36;;;;;;;13.82;8.00;;;;;;;4.82;72.95;101315.00;10516008;28;20076;-78
2022/12/27 11:46:45;;;;;;;14.20;8.85;;;;;;;4.28;73.45;101319.03;10496499;28;20055;-78
2022/12/27 11:52:31;;;;;;;16.42;10.40;;;;;;;4.41;73.75;101308.75;10483012;28;20053;-78
2022/12/27 11:57:56;;;;;;;20.27;11.10;;;;;;;4.37;74.54;101305.38;10478444;28;20561;-77
2022/12/27 12:03:29;;;;;;;24.67;13.77;;;;;;;4.48;74.74;101302.25;10510772;28;20048;-78
2022/12/27 12:09:05;;;;;;;16.23;9.40;;;;;;;4.67;73.55;101289.06;10490635;28;20048;-77
2022/12/27 12:14:34;;;;;;;22.38;13.50;;;;;;;5.51;71.41;101289.84;10483451;28;20075;-78
2022/12/27 12:20:13;;;;;;;13.43;8.52;;;;;;;5.14;71.59;101299.50;10488270;28;20038;-78
2022/12/27 12:25:52;;;;;;;21.25;13.73;;;;;;;4.95;72.60;101283.41;10437984;28;20060;-79
2022/12/27 12:31:11;;;;;;;11.38;7.78;;;;;;;4.98;71.47;101293.94;10488253;28;20037;-77
2022/12/27 12:36:31;;;;;;;22.35;12.25;;;;;;;4.99;72.26;101290.41;10519644;28;20409;-78
2022/12/27 12:42:00;;;;;;;18.92;11.65;;;;;;;5.27;71.56;101283.84;10504004;28;20070;-78
2022/12/27 12:47:15;;;;;;;30.80;12.57;;;;;;;5.39;71.57;101277.97;10508552;28;20052;-77
2022/12/27 12:52:31;;;;;;;21.80;11.02;;;;;;;5.38;71.74;101278.91;10506855;28;20072;-77
2022/12/27 12:57:46;;;;;;;16.33;10.50;;;;;;;5.22;71.35;101269.88;10478284;28;20470;-78
2022/12/27 13:03:14;;;;;;;19.27;11.75;;;;;;;4.97;72.55;101262.94;10499450;28;20190;-77
2022/12/27 13:08:26;;;;;;;19.75;11.10;;;;;;;5.19;72.61;101265.53;10514614;28;20440;-79
2022/12/27 13:13:38;;;;;;;19.08;10.20;;;;;;;5.36;71.65;101259.44;10478209;28;20060;-77
2022/12/27 13:18:51;;;;;;;21.00;10.77;;;;;;;5.57;71.64;101252.28;10487230;28;20444;-77
2022/12/27 13:24:09;;;;;;;19.00;11.43;;;;;;;5.49;71.67;101263.28;10474327;28;20465;-76
2022/12/27 13:29:33;;;;;;;19.13;10.18;;;;;;;5.48;71.90;101247.34;10493422;28;20041;-77
2022/12/27 13:34:51;;;;;;;17.50;9.18;;;;;;;5.78;70.41;101242.38;10461443;28;20048;-78
2022/12/27 13:40:18;;;;;;;11.77;6.35;;;;;;;5.75;70.21;101239.88;10500321;28;20528;-78
2022/12/27 13:45:39;;;;;;;14.25;5.97;;;;;;;5.29;72.07;101234.00;10490469;28;20067;-78
2022/12/27 13:51:07;;;;;;;11.27;5.70;;;;;;;5.00;73.21;101243.31;10483901;28;20049;-76
2022/12/27 13:56:21;;;;;;;13.85;7.18;;;;;;;5.33;72.93;101211.63;10496102;28;20040;-77
2022/12/27 14:02:06;;;;;;;13.57;7.50;;;;;;;5.67;71.04;101210.91;10496615;28;20108;-77
2022/12/27 14:07:49;;;;;;;17.30;7.30;;;;;;;5.46;72.19;101199.47;10480864;28;20033;-78
2022/12/27 14:13:01;;;;;;;14.20;6.07;;;;;;;5.50;72.00;101198.38;10462645;28;20519;-79
2022/12/27 14:18:31;;;;;;;11.03;5.17;;;;;;;5.88;71.18;101205.50;10495992;28;20480;-78
2022/12/27 14:23:48;;;;;;;14.93;6.75;;;;;;;5.46;71.77;101196.81;10491490;28;20052;-77
2022/12/27 14:29:27;;;;;;;18.23;6.65;;;;;;;5.14;72.96;101203.63;10496856;28;20508;-76
2022/12/27 14:34:55;;;;;;;13.35;6.07;;;;;;;5.57;72.12;101195.41;10488426;28;20118;-78
2022/12/27 14:40:27;;;;;;;13.77;5.70;;;;;;;5.49;72.28;101199.31;10500832;28;20060;-77
2022/12/27 14:46:16;;;;;;;10.10;4.40;;;;;;;5.38;72.95;101193.63;10496952;28;20044;-77
2022/12/27 14:51:46;;;;;;;15.73;5.40;;;;;;;5.26;73.37;101187.06;10467074;28;20056;-79
2022/12/27 14:57:22;;;;;;;18.23;5.55;;;;;;;5.22;73.34;101180.16;10498688;28;20047;-77
2022/12/27 15:02:51;;;;;;;15.23;5.78;;;;;;;5.33;73.13;101178.81;10500950;28;20070;-78
2022/12/27 15:08:15;;;;;;;5.93;2.60;;;;;;;5.34;72.47;101177.84;10506157;28;20040;-75
2022/12/27 15:13:28;;;;;;;13.80;5.10;;;;;;;5.38;72.42;101166.13;10500288;28;20052;-78
2022/12/27 15:18:51;;;;;;;6.45;3.50;;;;;;;5.20;72.92;101163.38;10513548;28;20513;-78
2022/12/27 15:24:02;;;;;;;10.70;5.50;;;;;;;5.34;72.39;101175.19;10513629;28;20044;-77
2022/12/27 15:29:21;;;;;;;13.48;4.18;;;;;;;4.96;73.43;101167.13;10509076;28;20053;-79
2022/12/27 15:34:40;;;;;;;10.15;4.40;;;;;;;5.42;71.68;101155.25;10512940;28;20049;-78
2022/12/27 15:39:48;;;;;;;10.32;4.25;;;;;;;5.35;71.90;101161.81;10496508;28;20041;-77
2022/12/27 15:45:02;;;;;;;8.90;3.60;;;;;;;5.54;71.10;101155.59;10520659;28;20041;-77
2022/12/27 15:50:34;;;;;;;9.32;4.43;;;;;;;5.52;71.01;101158.34;10517022;28;20057;-78
2022/12/27 15:55:59;;;;;;;8.77;4.45;;;;;;;5.35;71.82;101163.59;10490611;28;20064;-76
2022/12/27 16:01:29;;;;;;;12.95;5.97;;;;;;;5.24;71.97;101150.78;10515246;28;20043;-78
2022/12/27 16:06:51;;;;;;;13.10;5.50;;;;;;;5.10;73.06;101172.75;10464152;28;20114;-78
2022/12/27 16:12:03;;;;;;;7.28;3.88;;;;;;;5.06;73.20;101168.47;10481521;28;20064;-77
2022/12/27 16:17:27;;;;;;;6.25;3.50;;;;;;;5.09;73.40;101165.66;10477210;28;20068;-78
2022/12/27 16:22:36;;;;;;;7.18;4.43;;;;;;;4.84;74.47;101150.75;10481065;28;20095;-77
2022/12/27 16:27:39;;;;;;;7.68;4.18;;;;;;;4.82;74.87;101154.44;10482685;28;20064;-76
2022/12/27 16:32:48;;;;;;;8.88;3.67;;;;;;;4.68;75.49;101143.53;10467249;28;20090;-77
2022/12/27 16:37:54;;;;;;;4.78;3.60;;;;;;;4.75;74.87;101140.53;10490567;28;20033;-76
2022/12/27 16:43:30;;;;;;;12.10;3.90;;;;;;;4.62;75.44;101134.03;10465955;28;20045;-77
2022/12/27 16:48:47;;;;;;;13.85;4.30;;;;;;;4.71;75.80;101130.94;10457165;28;20129;-77
2022/12/27 16:54:03;;;;;;;9.80;4.97;;;;;;;4.86;74.93;101125.88;10484966;28;20076;-77
2022/12/27 16:59:55;;;;;;;7.85;2.90;;;;;;;4.75;75.23;101132.56;10457482;28;20132;-76
2022/12/27 17:04:59;;;;;;;11.43;4.88;;;;;;;5.05;74.69;101130.34;10457542;28;20057;-77
2022/12/27 17:10:33;;;;;;;10.30;4.35;;;;;;;5.23;74.00;101125.94;10456358;28;20445;-77
2022/12/27 17:15:43;;;;;;;11.70;4.97;;;;;;;5.09;74.15;101135.50;10474793;28;20053;-78
2022/12/27 17:21:03;;;;;;;9.35;4.57;;;;;;;5.42;73.15;101120.59;10474517;28;20048;-77
2022/12/27 17:26:26;;;;;;;10.27;3.88;;;;;;;5.25;73.51;101121.41;10461876;28;20072;-77
2022/12/27 17:31:38;;;;;;;8.20;4.20;;;;;;;5.35;73.53;101113.84;10482530;28;20076;-76
2022/12/27 17:36:51;;;;;;;12.33;4.13;;;;;;;5.52;72.68;101115.69;10490188;28;20079;-75
2022/12/27 17:47:40;;;;;;;9.38;4.00;;;;;;;5.47;72.82;101109.72;10502467;28;20123;-76
2022/12/27 17:58:23;;;;;;;11.77;3.85;;;;;;;5.59;72.22;101094.94;10482727;28;20040;-75
2022/12/27 18:03:34;;;;;;;5.72;3.80;;;;;;;5.57;72.08;101096.81;10486899;28;20048;-75
2022/12/27 18:08:37;;;;;;;10.15;3.33;;;;;;;5.76;71.25;101087.00;10480677;28;20083;-76
2022/12/27 18:13:52;;;;;;;8.82;3.20;;;;;;;5.85;71.18;101091.84;10489272;28;20102;-75
2022/12/27 18:18:58;;;;;;;8.85;2.40;;;;;;;5.41;72.12;101083.38;10468056;28;20045;-77
2022/12/27 18:24:01;;;;;;;6.50;2.42;;;;;;;5.63;71.31;101078.72;10479917;28;20056;-77
2022/12/27 18:29:10;;;;;;;6.45;2.92;;;;;;;5.68;71.38;101067.84;10455666;28;20067;-76
2022/12/27 18:34:21;;;;;;;6.88;2.25;;;;;;;5.47;71.51;101065.28;10479462;28;20136;-76
2022/12/27 18:39:28;;;;;;;8.45;2.55;;;;;;;5.68;70.72;101051.84;10465086;28;20099;-77
2022/12/27 18:44:42;;;;;;;2.97;1.75;;;;;;;5.35;71.96;101041.03;10486988;28;20087;-78
2022/12/27 18:49:45;;;;;;;3.05;1.85;;;;;;;5.64;70.47;101034.25;10472578;28;20128;-78
2022/12/27 18:54:48;;;;;;;5.88;1.88;;;;;;;5.58;70.84;101021.25;10453720;28;20136;-80
2022/12/27 19:00:03;;;;;;;4.03;1.65;;;;;;;5.28;71.20;101022.69;10465095;28;20064;-78
2022/12/27 19:05:29;;;;;;;4.68;1.80;;;;;;;5.43;70.92;101023.75;10483921;28;20070;-76
2022/12/27 19:10:32;;;;;;;5.70;1.95;;;;;;;5.55;70.12;101006.28;10456783;28;20510;-77
2022/12/27 19:15:42;;;;;;;6.88;2.00;;;;;;;5.48;69.95;101007.50;10455459;28;20053;-77
2022/12/27 19:20:54;;;;;;;7.18;2.10;;;;;;;5.78;69.00;101006.91;10479400;28;20036;-77
2022/12/27 19:26:04;;;;;;;7.70;2.13;;;;;;;5.44;69.58;101016.63;10474944;28;20098;-78
2022/12/27 19:31:18;;;;;;;3.58;1.77;;;;;;;5.22;69.63;101004.34;10474842;28;20425;-79
2022/12/27 19:36:26;;;;;;;7.82;2.20;;;;;;;5.39;69.21;100990.19;10471408;28;20040;-79
2022/12/27 19:41:30;;;;;;;6.75;2.20;;;;;;;5.27;68.74;100998.81;10474468;28;20120;-77
2022/12/27 19:46:34;;;;;;;9.25;2.63;;;;;;;5.46;68.36;101002.28;10474908;28;20487;-77
2022/12/27 19:51:37;;;;;;;9.25;1.77;;;;;;;5.24;68.75;101002.47;10469475;28;20045;-78
2022/12/27 19:56:40;;;;;;;5.00;2.08;;;;;;;5.03;69.78;101004.38;10470585;28;20608;-78
2022/12/27 20:01:45;;;;;;;8.38;2.45;;;;;;;5.06;69.38;100993.56;10481592;28;20037;-78
2022/12/27 20:06:49;;;;;;;7.43;2.60;;;;;;;5.13;69.04;101009.25;10480716;28;20055;-79
2022/12/27 20:11:51;;;;;;;5.22;1.98;;;;;;;4.82;69.38;101003.53;10468452;28;20082;-77
2022/12/27 20:16:56;;;;;;;7.03;2.45;;;;;;;4.98;68.85;100993.03;10470687;28;20048;-78
2022/12/27 20:21:59;;;;;;;8.07;2.05;;;;;;;4.71;69.65;100984.56;10487169;28;20032;-78
2022/12/27 20:27:02;;;;;;;4.13;1.77;;;;;;;4.81;69.27;100969.03;10490556;28;20045;-78
2022/12/27 20:32:06;;;;;;;6.82;2.15;;;;;;;4.67;69.36;100982.13;10478410;28;20048;-77
2022/12/27 20:37:09;;;;;;;4.05;1.77;;;;;;;4.46;69.87;100966.22;10485827;28;20070;-78
2022/12/27 20:42:12;;;;;;;10.60;2.47;;;;;;;4.53;69.58;100959.69;10485498;28;20049;-78
2022/12/27 20:47:16;;;;;;;8.32;3.95;;;;;;;4.54;69.52;100956.09;10478458;28;20124;-78
2022/12/27 20:52:19;;;;;;;4.63;2.30;;;;;;;4.28;70.01;100970.59;10479590;28;20082;-77
2022/12/27 20:57:30;;;;;;;3.80;1.70;;;;;;;4.26;69.95;100942.34;10489842;28;20040;-80
2022/12/27 21:02:34;;;;;;;5.03;1.48;;;;;;;4.27;69.70;100952.03;10479567;28;20081;-77
2022/12/27 21:07:38;;;;;;;6.68;2.05;;;;;;;4.38;69.37;100933.78;10478971;28;20041;-78
2022/12/27 21:12:40;;;;;;;5.55;1.30;;;;;;;4.14;70.15;100934.00;10459617;28;20041;-78
2022/12/27 21:17:44;;;;;;;5.38;1.73;;;;;;;4.32;69.26;100928.75;10482569;28;20498;-78
2022/12/27 21:22:47;;;;;;;6.25;2.08;;;;;;;4.23;69.50;100927.41;10490100;28;20102;-78
2022/12/27 21:27:50;;;;;;;5.30;1.75;;;;;;;3.78;71.00;100938.28;10474453;28;20041;-78
2022/12/27 21:32:54;;;;;;;6.95;1.77;;;;;;;3.72;70.78;100934.09;10476211;28;20094;-79
2022/12/27 21:37:57;;;;;;;5.78;1.17;;;;;;;3.84;70.19;100938.91;10481130;28;20044;-77
2022/12/27 21:43:00;;;;;;;4.35;1.45;;;;;;;4.16;69.62;100942.75;10484173;28;20064;-78
2022/12/27 21:48:04;;;;;;;4.93;2.10;;;;;;;4.17;69.13;100925.03;10483775;28;20045;-78
2022/12/27 21:53:07;;;;;;;4.57;1.75;;;;;;;4.02;70.03;100923.91;10476108;28;20041;-77
2022/12/27 21:58:12;;;;;;;5.43;1.60;;;;;;;4.02;69.58;100915.94;10471253;28;20400;-78
2022/12/27 22:03:16;;;;;;;11.63;2.22;;;;;;;4.13;69.25;100912.78;10492305;28;20044;-76
2022/12/27 22:08:19;;;;;;;4.70;1.60;;;;;;;4.27;68.91;100904.16;10488526;28;20421;-77
2022/12/27 22:13:22;;;;;;;4.65;1.75;;;;;;;4.01;69.31;100895.59;10507413;28;20041;-76
2022/12/27 22:18:30;;;;;;;10.00;1.75;;;;;;;4.04;68.81;100895.47;10502938;28;20071;-77
2022/12/27 22:23:33;;;;;;;6.32;1.75;;;;;;;4.08;68.90;100880.22;10487486;28;20048;-77
2022/12/27 22:28:36;;;;;;;5.63;2.15;;;;;;;4.11;68.94;100882.72;10487536;28;20225;-77
2022/12/27 22:33:40;;;;;;;6.80;1.88;;;;;;;4.11;68.84;100878.31;10518322;28;20522;-77
2022/12/27 22:38:43;;;;;;;3.35;1.58;;;;;;;4.00;68.70;100872.59;10488832;28;20113;-76
2022/12/27 22:43:53;;;;;;;7.47;1.63;;;;;;;4.00;69.01;100861.94;10483390;28;20052;-79
2022/12/27 22:48:59;;;;;;;5.93;1.83;;;;;;;3.89;68.85;100858.94;10481958;28;20131;-77
2022/12/27 22:54:04;;;;;;;4.65;1.75;;;;;;;3.86;69.16;100843.13;10476845;28;20072;-77
2022/12/27 22:59:07;;;;;;;8.77;1.60;;;;;;;4.31;67.75;100836.63;10467213;28;20537;-77
2022/12/27 23:04:13;;;;;;;8.20;1.73;;;;;;;4.02;68.79;100827.34;10500493;28;20044;-77
2022/12/27 23:09:16;;;;;;;8.60;1.80;;;;;;;3.66;69.24;100817.47;10512651;28;20048;-77
2022/12/27 23:14:19;;;;;;;6.07;1.58;;;;;;;3.78;68.62;100808.91;10495361;28;20049;-78
2022/12/27 23:19:24;;;;;;;7.10;1.90;;;;;;;4.03;68.35;100797.16;10498003;28;20067;-78
2022/12/27 23:24:27;;;;;;;4.82;1.40;;;;;;;3.94;68.16;100788.66;10501516;28;20075;-78
2022/12/27 23:29:30;;;;;;;6.72;1.75;;;;;;;4.09;67.95;100776.47;10481332;28;20483;-77
2022/12/27 23:34:34;;;;;;;8.25;2.72;;;;;;;3.90;68.50;100760.53;10469975;28;20065;-79
2022/12/27 23:39:36;;;;;;;8.10;2.00;;;;;;;3.87;68.55;100752.69;10462804;28;20036;-77
2022/12/27 23:44:39;;;;;;;6.05;2.25;;;;;;;4.17;67.57;100726.44;10470424;28;20072;-77
2022/12/27 23:49:43;;;;;;;3.83;1.52;;;;;;;3.77;68.53;100721.31;10468476;28;20410;-78
2022/12/27 23:54:46;;;;;;;6.18;1.80;;;;;;;4.09;67.80;100711.81;10476728;28;20098;-78
2022/12/27 23:59:50;;;;;;;5.15;1.95;;;;;;;3.52;69.19;100695.03;10474683;28;20080;-78
